sensor_id;sensor_type;location;lat;lon;timestamp;P1;durP1;ratioP1;P2;durP2;ratioP2
71947;SDS011;63257;55.082;38.772;2023-02-01T00:00:20;34.70;;;12.93;;
71947;SDS011;63257;55.082;38.772;2023-02-01T00:02:47;32.10;;;12.17;;
71947;SDS011;63257;55.082;38.772;2023-02-01T00:05:12;38.50;;;14.52;;
71947;SDS011;63257;55.082;38.772;2023-02-01T00:07:38;33.95;;;13.10;;
71947;SDS011;63257;55.082;38.772;2023-02-01T00:10:05;31.95;;;12.95;;
71947;SDS011;63257;55.082;38.772;2023-02-01T00:12:31;33.42;;;14.23;;
71947;SDS011;63257;55.082;38.772;2023-02-01T00:14:58;35.00;;;13.70;;
71947;SDS011;63257;55.082;38.772;2023-02-01T00:17:24;33.97;;;12.70;;
71947;SDS011;63257;55.082;38.772;2023-02-01T00:19:50;32.15;;;12.82;;
71947;SDS011;63257;55.082;38.772;2023-02-01T00:22:15;33.60;;;13.93;;
71947;SDS011;63257;55.082;38.772;2023-02-01T00:24:41;37.85;;;13.75;;
71947;SDS011;63257;55.082;38.772;2023-02-01T00:27:08;31.58;;;12.45;;
71947;SDS011;63257;55.082;38.772;2023-02-01T00:29:33;36.47;;;14.03;;
71947;SDS011;63257;55.082;38.772;2023-02-01T00:31:59;32.58;;;12.88;;
71947;SDS011;63257;55.082;38.772;2023-02-01T00:34:25;31.97;;;13.43;;
71947;SDS011;63257;55.082;38.772;2023-02-01T00:36:52;35.92;;;13.57;;
71947;SDS011;63257;55.082;38.772;2023-02-01T00:39:18;37.35;;;13.40;;
71947;SDS011;63257;55.082;38.772;2023-02-01T00:41:44;34.90;;;13.93;;
71947;SDS011;63257;55.082;38.772;2023-02-01T00:44:10;35.33;;;13.98;;
71947;SDS011;63257;55.082;38.772;2023-02-01T00:46:36;35.13;;;12.10;;
71947;SDS011;63257;55.082;38.772;2023-02-01T00:49:01;34.92;;;13.35;;
71947;SDS011;63257;55.082;38.772;2023-02-01T00:51:29;35.83;;;13.43;;
71947;SDS011;63257;55.082;38.772;2023-02-01T00:53:55;35.47;;;13.55;;
71947;SDS011;63257;55.082;38.772;2023-02-01T00:56:21;35.88;;;13.35;;
71947;SDS011;63257;55.082;38.772;2023-02-01T00:58:47;35.38;;;13.10;;
71947;SDS011;63257;55.082;38.772;2023-02-01T01:01:24;35.63;;;13.57;;
71947;SDS011;63257;55.082;38.772;2023-02-01T01:03:52;32.65;;;12.40;;
71947;SDS011;63257;55.082;38.772;2023-02-01T01:06:21;31.10;;;12.20;;
71947;SDS011;63257;55.082;38.772;2023-02-01T01:08:50;32.60;;;12.27;;
71947;SDS011;63257;55.082;38.772;2023-02-01T01:11:24;31.60;;;11.73;;
71947;SDS011;63257;55.082;38.772;2023-02-01T01:13:53;33.58;;;13.38;;
71947;SDS011;63257;55.082;38.772;2023-02-01T01:16:20;32.92;;;12.20;;
71947;SDS011;63257;55.082;38.772;2023-02-01T01:18:47;34.47;;;12.97;;
71947;SDS011;63257;55.082;38.772;2023-02-01T01:21:14;33.78;;;12.82;;
71947;SDS011;63257;55.082;38.772;2023-02-01T01:23:41;31.25;;;12.68;;
71947;SDS011;63257;55.082;38.772;2023-02-01T01:26:08;33.03;;;12.52;;
71947;SDS011;63257;55.082;38.772;2023-02-01T01:28:39;31.75;;;12.27;;
71947;SDS011;63257;55.082;38.772;2023-02-01T01:31:09;35.17;;;12.18;;
71947;SDS011;63257;55.082;38.772;2023-02-01T01:33:36;31.25;;;12.43;;
71947;SDS011;63257;55.082;38.772;2023-02-01T01:36:04;34.87;;;12.43;;
71947;SDS011;63257;55.082;38.772;2023-02-01T01:38:31;29.40;;;11.98;;
71947;SDS011;63257;55.082;38.772;2023-02-01T01:40:57;29.58;;;12.25;;
71947;SDS011;63257;55.082;38.772;2023-02-01T01:43:23;27.60;;;11.23;;
71947;SDS011;63257;55.082;38.772;2023-02-01T01:45:51;34.38;;;12.40;;
71947;SDS011;63257;55.082;38.772;2023-02-01T01:48:25;35.42;;;13.50;;
71947;SDS011;63257;55.082;38.772;2023-02-01T01:51:00;33.00;;;12.20;;
71947;SDS011;63257;55.082;38.772;2023-02-01T01:53:33;33.75;;;12.70;;
71947;SDS011;63257;55.082;38.772;2023-02-01T01:56:06;34.42;;;12.90;;
71947;SDS011;63257;55.082;38.772;2023-02-01T01:58:33;38.00;;;12.93;;
71947;SDS011;63257;55.082;38.772;2023-02-01T02:00:59;32.67;;;13.13;;
71947;SDS011;63257;55.082;38.772;2023-02-01T02:03:30;31.77;;;13.27;;
71947;SDS011;63257;55.082;38.772;2023-02-01T02:06:00;34.53;;;12.50;;
71947;SDS011;63257;55.082;38.772;2023-02-01T02:08:29;37.27;;;13.00;;
71947;SDS011;63257;55.082;38.772;2023-02-01T02:10:55;32.70;;;12.18;;
71947;SDS011;63257;55.082;38.772;2023-02-01T02:13:38;38.08;;;13.77;;
71947;SDS011;63257;55.082;38.772;2023-02-01T02:18:43;33.33;;;13.38;;
71947;SDS011;63257;55.082;38.772;2023-02-01T02:24:40;33.43;;;12.63;;
71947;SDS011;63257;55.082;38.772;2023-02-01T02:38:38;36.50;;;12.52;;
71947;SDS011;63257;55.082;38.772;2023-02-01T02:40:59;31.48;;;12.15;;
71947;SDS011;63257;55.082;38.772;2023-02-01T02:44:14;34.40;;;11.57;;
71947;SDS011;63257;55.082;38.772;2023-02-01T02:47:03;34.40;;;12.75;;
71947;SDS011;63257;55.082;38.772;2023-02-01T02:49:56;35.90;;;13.13;;
71947;SDS011;63257;55.082;38.772;2023-02-01T02:52:56;36.20;;;11.83;;
71947;SDS011;63257;55.082;38.772;2023-02-01T02:55:51;33.83;;;12.32;;
71947;SDS011;63257;55.082;38.772;2023-02-01T02:58:18;34.90;;;12.65;;
71947;SDS011;63257;55.082;38.772;2023-02-01T03:01:05;34.90;;;13.90;;
71947;SDS011;63257;55.082;38.772;2023-02-01T03:03:50;35.05;;;12.80;;
71947;SDS011;63257;55.082;38.772;2023-02-01T03:06:35;33.40;;;12.18;;
71947;SDS011;63257;55.082;38.772;2023-02-01T03:09:04;34.53;;;13.40;;
71947;SDS011;63257;55.082;38.772;2023-02-01T03:11:35;36.90;;;12.90;;
71947;SDS011;63257;55.082;38.772;2023-02-01T03:14:21;35.38;;;13.13;;
71947;SDS011;63257;55.082;38.772;2023-02-01T03:16:51;40.28;;;13.43;;
71947;SDS011;63257;55.082;38.772;2023-02-01T03:19:25;38.87;;;14.23;;
71947;SDS011;63257;55.082;38.772;2023-02-01T03:22:01;35.03;;;13.00;;
71947;SDS011;63257;55.082;38.772;2023-02-01T03:27:16;39.22;;;14.07;;
71947;SDS011;63257;55.082;38.772;2023-02-01T03:29:54;38.40;;;13.68;;
71947;SDS011;63257;55.082;38.772;2023-02-01T03:32:38;38.45;;;15.13;;
71947;SDS011;63257;55.082;38.772;2023-02-01T03:40:53;42.45;;;14.95;;
71947;SDS011;63257;55.082;38.772;2023-02-01T03:43:28;41.40;;;15.23;;
71947;SDS011;63257;55.082;38.772;2023-02-01T03:46:00;36.93;;;13.33;;
71947;SDS011;63257;55.082;38.772;2023-02-01T03:48:30;40.28;;;14.75;;
71947;SDS011;63257;55.082;38.772;2023-02-01T03:50:59;38.28;;;13.65;;
71947;SDS011;63257;55.082;38.772;2023-02-01T03:53:29;38.83;;;14.13;;
71947;SDS011;63257;55.082;38.772;2023-02-01T03:55:57;38.15;;;14.85;;
71947;SDS011;63257;55.082;38.772;2023-02-01T03:58:24;44.00;;;14.13;;
71947;SDS011;63257;55.082;38.772;2023-02-01T04:00:54;42.72;;;14.68;;
71947;SDS011;63257;55.082;38.772;2023-02-01T04:03:22;39.43;;;13.50;;
71947;SDS011;63257;55.082;38.772;2023-02-01T04:05:49;39.83;;;13.52;;
71947;SDS011;63257;55.082;38.772;2023-02-01T04:08:15;40.85;;;14.18;;
71947;SDS011;63257;55.082;38.772;2023-02-01T04:10:41;48.57;;;18.83;;
71947;SDS011;63257;55.082;38.772;2023-02-01T04:13:07;40.15;;;14.82;;
71947;SDS011;63257;55.082;38.772;2023-02-01T04:15:33;39.47;;;14.05;;
71947;SDS011;63257;55.082;38.772;2023-02-01T04:18:00;37.90;;;14.87;;
71947;SDS011;63257;55.082;38.772;2023-02-01T04:20:27;38.42;;;14.52;;
71947;SDS011;63257;55.082;38.772;2023-02-01T04:22:53;39.67;;;13.98;;
71947;SDS011;63257;55.082;38.772;2023-02-01T04:25:20;39.53;;;14.80;;
71947;SDS011;63257;55.082;38.772;2023-02-01T04:27:46;42.53;;;14.80;;
71947;SDS011;63257;55.082;38.772;2023-02-01T04:30:12;41.70;;;16.10;;
71947;SDS011;63257;55.082;38.772;2023-02-01T04:32:39;41.58;;;14.85;;
71947;SDS011;63257;55.082;38.772;2023-02-01T04:35:06;42.65;;;15.27;;
71947;SDS011;63257;55.082;38.772;2023-02-01T04:37:33;44.28;;;16.23;;
71947;SDS011;63257;55.082;38.772;2023-02-01T04:39:59;40.75;;;16.30;;
71947;SDS011;63257;55.082;38.772;2023-02-01T04:42:26;41.03;;;15.07;;
71947;SDS011;63257;55.082;38.772;2023-02-01T04:44:52;36.03;;;14.77;;
71947;SDS011;63257;55.082;38.772;2023-02-01T04:47:18;43.03;;;15.27;;
71947;SDS011;63257;55.082;38.772;2023-02-01T04:49:44;40.42;;;14.25;;
71947;SDS011;63257;55.082;38.772;2023-02-01T04:52:13;43.60;;;16.20;;
71947;SDS011;63257;55.082;38.772;2023-02-01T04:54:39;44.30;;;15.10;;
71947;SDS011;63257;55.082;38.772;2023-02-01T04:57:05;42.78;;;15.85;;
71947;SDS011;63257;55.082;38.772;2023-02-01T04:59:31;40.10;;;14.65;;
71947;SDS011;63257;55.082;38.772;2023-02-01T05:01:58;37.53;;;14.07;;
71947;SDS011;63257;55.082;38.772;2023-02-01T05:04:23;38.63;;;14.75;;
71947;SDS011;63257;55.082;38.772;2023-02-01T05:06:49;41.28;;;15.43;;
71947;SDS011;63257;55.082;38.772;2023-02-01T05:09:15;37.10;;;14.32;;
71947;SDS011;63257;55.082;38.772;2023-02-01T05:11:41;41.95;;;15.13;;
71947;SDS011;63257;55.082;38.772;2023-02-01T05:14:26;37.85;;;15.35;;
71947;SDS011;63257;55.082;38.772;2023-02-01T05:16:52;42.03;;;14.87;;
71947;SDS011;63257;55.082;38.772;2023-02-01T05:19:18;43.55;;;15.70;;
71947;SDS011;63257;55.082;38.772;2023-02-01T05:21:44;40.08;;;13.82;;
71947;SDS011;63257;55.082;38.772;2023-02-01T05:24:10;40.35;;;15.55;;
71947;SDS011;63257;55.082;38.772;2023-02-01T05:26:42;36.63;;;14.63;;
71947;SDS011;63257;55.082;38.772;2023-02-01T05:29:08;42.10;;;14.50;;
71947;SDS011;63257;55.082;38.772;2023-02-01T05:31:36;37.08;;;13.77;;
71947;SDS011;63257;55.082;38.772;2023-02-01T05:34:03;36.00;;;13.20;;
71947;SDS011;63257;55.082;38.772;2023-02-01T05:36:30;40.50;;;13.85;;
71947;SDS011;63257;55.082;38.772;2023-02-01T05:38:56;45.17;;;15.50;;
71947;SDS011;63257;55.082;38.772;2023-02-01T05:41:22;37.13;;;13.38;;
71947;SDS011;63257;55.082;38.772;2023-02-01T05:43:48;40.00;;;14.00;;
71947;SDS011;63257;55.082;38.772;2023-02-01T05:46:15;35.67;;;13.40;;
71947;SDS011;63257;55.082;38.772;2023-02-01T05:48:40;39.30;;;14.68;;
71947;SDS011;63257;55.082;38.772;2023-02-01T05:51:07;38.90;;;13.13;;
71947;SDS011;63257;55.082;38.772;2023-02-01T05:53:35;40.15;;;14.85;;
71947;SDS011;63257;55.082;38.772;2023-02-01T05:56:01;37.13;;;13.90;;
71947;SDS011;63257;55.082;38.772;2023-02-01T05:58:28;40.17;;;15.38;;
71947;SDS011;63257;55.082;38.772;2023-02-01T06:00:55;42.87;;;14.30;;
71947;SDS011;63257;55.082;38.772;2023-02-01T06:03:20;40.47;;;14.38;;
71947;SDS011;63257;55.082;38.772;2023-02-01T06:05:47;41.90;;;16.40;;
71947;SDS011;63257;55.082;38.772;2023-02-01T06:08:14;37.72;;;14.45;;
71947;SDS011;63257;55.082;38.772;2023-02-01T06:10:41;38.40;;;14.05;;
71947;SDS011;63257;55.082;38.772;2023-02-01T06:13:07;43.58;;;14.45;;
71947;SDS011;63257;55.082;38.772;2023-02-01T06:15:33;42.53;;;14.90;;
71947;SDS011;63257;55.082;38.772;2023-02-01T06:18:00;40.83;;;13.93;;
71947;SDS011;63257;55.082;38.772;2023-02-01T06:20:26;35.75;;;13.98;;
71947;SDS011;63257;55.082;38.772;2023-02-01T06:22:53;38.92;;;13.77;;
71947;SDS011;63257;55.082;38.772;2023-02-01T06:25:19;36.92;;;13.77;;
71947;SDS011;63257;55.082;38.772;2023-02-01T06:27:46;38.53;;;14.27;;
71947;SDS011;63257;55.082;38.772;2023-02-01T06:30:12;40.03;;;15.27;;
71947;SDS011;63257;55.082;38.772;2023-02-01T06:32:43;38.75;;;15.15;;
71947;SDS011;63257;55.082;38.772;2023-02-01T06:35:09;37.97;;;13.43;;
71947;SDS011;63257;55.082;38.772;2023-02-01T06:37:41;38.67;;;14.63;;
71947;SDS011;63257;55.082;38.772;2023-02-01T06:40:07;38.75;;;14.70;;
71947;SDS011;63257;55.082;38.772;2023-02-01T06:42:34;35.75;;;13.07;;
71947;SDS011;63257;55.082;38.772;2023-02-01T06:45:00;38.77;;;14.00;;
71947;SDS011;63257;55.082;38.772;2023-02-01T06:47:26;36.95;;;13.25;;
71947;SDS011;63257;55.082;38.772;2023-02-01T06:49:52;35.42;;;12.90;;
71947;SDS011;63257;55.082;38.772;2023-02-01T06:52:18;35.10;;;12.77;;
71947;SDS011;63257;55.082;38.772;2023-02-01T06:54:44;31.73;;;12.70;;
71947;SDS011;63257;55.082;38.772;2023-02-01T06:57:10;33.33;;;12.73;;
71947;SDS011;63257;55.082;38.772;2023-02-01T06:59:37;31.58;;;12.45;;
71947;SDS011;63257;55.082;38.772;2023-02-01T07:06:08;30.47;;;10.93;;
71947;SDS011;63257;55.082;38.772;2023-02-01T07:08:35;32.42;;;11.52;;
71947;SDS011;63257;55.082;38.772;2023-02-01T07:11:03;26.20;;;11.05;;
71947;SDS011;63257;55.082;38.772;2023-02-01T07:13:30;34.43;;;11.37;;
71947;SDS011;63257;55.082;38.772;2023-02-01T07:16:01;33.08;;;12.70;;
71947;SDS011;63257;55.082;38.772;2023-02-01T07:18:29;34.85;;;12.50;;
71947;SDS011;63257;55.082;38.772;2023-02-01T07:20:56;29.48;;;11.23;;
71947;SDS011;63257;55.082;38.772;2023-02-01T07:30:33;33.33;;;11.32;;
71947;SDS011;63257;55.082;38.772;2023-02-01T07:32:59;31.47;;;11.30;;
71947;SDS011;63257;55.082;38.772;2023-02-01T07:35:27;31.25;;;12.73;;
71947;SDS011;63257;55.082;38.772;2023-02-01T07:37:54;30.73;;;11.30;;
71947;SDS011;63257;55.082;38.772;2023-02-01T07:40:20;35.05;;;12.45;;
71947;SDS011;63257;55.082;38.772;2023-02-01T07:42:54;29.88;;;11.15;;
71947;SDS011;63257;55.082;38.772;2023-02-01T07:45:21;28.65;;;11.13;;
71947;SDS011;63257;55.082;38.772;2023-02-01T07:47:47;28.90;;;11.43;;
71947;SDS011;63257;55.082;38.772;2023-02-01T07:50:14;34.80;;;11.60;;
71947;SDS011;63257;55.082;38.772;2023-02-01T07:52:41;29.50;;;12.10;;
71947;SDS011;63257;55.082;38.772;2023-02-01T07:55:07;30.07;;;11.03;;
71947;SDS011;63257;55.082;38.772;2023-02-01T07:57:33;31.92;;;12.40;;
71947;SDS011;63257;55.082;38.772;2023-02-01T07:59:59;31.33;;;11.63;;
71947;SDS011;63257;55.082;38.772;2023-02-01T08:02:44;28.40;;;11.48;;
71947;SDS011;63257;55.082;38.772;2023-02-01T08:05:09;30.02;;;11.32;;
71947;SDS011;63257;55.082;38.772;2023-02-01T08:07:35;29.43;;;11.80;;
71947;SDS011;63257;55.082;38.772;2023-02-01T08:10:01;33.15;;;11.25;;
71947;SDS011;63257;55.082;38.772;2023-02-01T08:12:28;29.45;;;11.73;;
71947;SDS011;63257;55.082;38.772;2023-02-01T08:14:54;30.48;;;11.93;;
71947;SDS011;63257;55.082;38.772;2023-02-01T08:17:21;29.77;;;11.07;;
71947;SDS011;63257;55.082;38.772;2023-02-01T08:19:48;30.47;;;11.83;;
71947;SDS011;63257;55.082;38.772;2023-02-01T08:22:13;31.88;;;12.20;;
71947;SDS011;63257;55.082;38.772;2023-02-01T08:24:39;29.13;;;11.47;;
71947;SDS011;63257;55.082;38.772;2023-02-01T08:27:06;32.90;;;12.13;;
71947;SDS011;63257;55.082;38.772;2023-02-01T08:29:32;30.85;;;11.65;;
71947;SDS011;63257;55.082;38.772;2023-02-01T08:40:20;30.63;;;11.93;;
71947;SDS011;63257;55.082;38.772;2023-02-01T08:42:47;29.27;;;10.83;;
71947;SDS011;63257;55.082;38.772;2023-02-01T08:45:19;26.85;;;10.95;;
71947;SDS011;63257;55.082;38.772;2023-02-01T08:47:47;30.15;;;11.95;;
71947;SDS011;63257;55.082;38.772;2023-02-01T08:50:13;29.67;;;11.02;;
71947;SDS011;63257;55.082;38.772;2023-02-01T08:52:39;31.95;;;11.82;;
71947;SDS011;63257;55.082;38.772;2023-02-01T08:55:05;32.97;;;12.02;;
71947;SDS011;63257;55.082;38.772;2023-02-01T08:57:32;25.03;;;10.47;;
71947;SDS011;63257;55.082;38.772;2023-02-01T08:59:58;27.70;;;10.93;;
71947;SDS011;63257;55.082;38.772;2023-02-01T09:02:25;25.48;;;10.55;;
71947;SDS011;63257;55.082;38.772;2023-02-01T09:04:52;29.70;;;11.50;;
71947;SDS011;63257;55.082;38.772;2023-02-01T09:07:19;29.67;;;11.80;;
71947;SDS011;63257;55.082;38.772;2023-02-01T09:09:45;25.90;;;10.65;;
71947;SDS011;63257;55.082;38.772;2023-02-01T09:12:11;30.70;;;10.90;;
71947;SDS011;63257;55.082;38.772;2023-02-01T09:14:37;28.45;;;11.23;;
71947;SDS011;63257;55.082;38.772;2023-02-01T09:17:04;26.58;;;10.95;;
71947;SDS011;63257;55.082;38.772;2023-02-01T09:19:30;28.77;;;11.27;;
71947;SDS011;63257;55.082;38.772;2023-02-01T09:21:57;28.17;;;11.10;;
71947;SDS011;63257;55.082;38.772;2023-02-01T09:24:23;28.88;;;10.90;;
71947;SDS011;63257;55.082;38.772;2023-02-01T09:26:49;29.27;;;10.90;;
71947;SDS011;63257;55.082;38.772;2023-02-01T09:29:15;30.60;;;11.77;;
71947;SDS011;63257;55.082;38.772;2023-02-01T09:31:42;31.83;;;11.48;;
71947;SDS011;63257;55.082;38.772;2023-02-01T09:34:07;30.88;;;11.23;;
71947;SDS011;63257;55.082;38.772;2023-02-01T09:36:33;28.50;;;10.73;;
71947;SDS011;63257;55.082;38.772;2023-02-01T09:39:00;29.58;;;11.02;;
71947;SDS011;63257;55.082;38.772;2023-02-01T09:41:42;27.83;;;11.48;;
71947;SDS011;63257;55.082;38.772;2023-02-01T09:47:26;28.17;;;11.10;;
71947;SDS011;63257;55.082;38.772;2023-02-01T09:49:58;28.98;;;11.57;;
71947;SDS011;63257;55.082;38.772;2023-02-01T09:52:28;34.77;;;12.67;;
71947;SDS011;63257;55.082;38.772;2023-02-01T09:55:19;32.00;;;11.38;;
71947;SDS011;63257;55.082;38.772;2023-02-01T09:57:56;32.75;;;11.77;;
71947;SDS011;63257;55.082;38.772;2023-02-01T10:00:34;29.13;;;11.07;;
71947;SDS011;63257;55.082;38.772;2023-02-01T10:03:02;27.08;;;10.02;;
71947;SDS011;63257;55.082;38.772;2023-02-01T10:05:37;30.40;;;10.70;;
71947;SDS011;63257;55.082;38.772;2023-02-01T10:08:18;28.77;;;10.80;;
71947;SDS011;63257;55.082;38.772;2023-02-01T10:10:55;27.17;;;11.25;;
71947;SDS011;63257;55.082;38.772;2023-02-01T10:14:16;28.92;;;11.73;;
71947;SDS011;63257;55.082;38.772;2023-02-01T10:16:23;31.55;;;11.18;;
71947;SDS011;63257;55.082;38.772;2023-02-01T10:22:05;27.10;;;10.57;;
71947;SDS011;63257;55.082;38.772;2023-02-01T10:27:31;27.50;;;10.10;;
71947;SDS011;63257;55.082;38.772;2023-02-01T10:30:01;22.30;;;9.10;;
71947;SDS011;63257;55.082;38.772;2023-02-01T10:32:39;26.75;;;10.80;;
71947;SDS011;63257;55.082;38.772;2023-02-01T10:35:15;30.00;;;10.43;;
71947;SDS011;63257;55.082;38.772;2023-02-01T10:41:36;27.38;;;10.05;;
71947;SDS011;63257;55.082;38.772;2023-02-01T10:44:06;27.13;;;11.27;;
71947;SDS011;63257;55.082;38.772;2023-02-01T10:46:38;28.30;;;10.67;;
71947;SDS011;63257;55.082;38.772;2023-02-01T10:49:04;27.58;;;10.90;;
71947;SDS011;63257;55.082;38.772;2023-02-01T10:51:45;24.85;;;10.77;;
71947;SDS011;63257;55.082;38.772;2023-02-01T10:54:18;25.27;;;10.23;;
71947;SDS011;63257;55.082;38.772;2023-02-01T10:56:46;24.42;;;10.07;;
71947;SDS011;63257;55.082;38.772;2023-02-01T10:59:20;24.60;;;10.70;;
71947;SDS011;63257;55.082;38.772;2023-02-01T11:01:51;27.50;;;10.55;;
71947;SDS011;63257;55.082;38.772;2023-02-01T11:04:24;27.58;;;10.98;;
71947;SDS011;63257;55.082;38.772;2023-02-01T11:07:34;25.98;;;10.65;;
71947;SDS011;63257;55.082;38.772;2023-02-01T11:09:48;28.02;;;11.57;;
71947;SDS011;63257;55.082;38.772;2023-02-01T11:12:36;26.63;;;10.20;;
71947;SDS011;63257;55.082;38.772;2023-02-01T11:15:12;25.77;;;11.00;;
71947;SDS011;63257;55.082;38.772;2023-02-01T11:17:44;27.65;;;10.40;;
71947;SDS011;63257;55.082;38.772;2023-02-01T11:20:16;27.43;;;11.37;;
71947;SDS011;63257;55.082;38.772;2023-02-01T11:22:54;25.38;;;10.55;;
71947;SDS011;63257;55.082;38.772;2023-02-01T11:25:22;30.25;;;10.82;;
71947;SDS011;63257;55.082;38.772;2023-02-01T11:27:54;28.95;;;11.30;;
71947;SDS011;63257;55.082;38.772;2023-02-01T11:33:07;29.55;;;12.05;;
71947;SDS011;63257;55.082;38.772;2023-02-01T11:35:39;27.65;;;11.38;;
71947;SDS011;63257;55.082;38.772;2023-02-01T11:38:20;26.63;;;10.43;;
71947;SDS011;63257;55.082;38.772;2023-02-01T11:41:20;27.55;;;10.30;;
71947;SDS011;63257;55.082;38.772;2023-02-01T11:46:27;25.37;;;10.27;;
71947;SDS011;63257;55.082;38.772;2023-02-01T11:48:56;26.10;;;10.40;;
71947;SDS011;63257;55.082;38.772;2023-02-01T11:51:27;30.20;;;11.65;;
71947;SDS011;63257;55.082;38.772;2023-02-01T12:00:02;25.60;;;10.00;;
71947;SDS011;63257;55.082;38.772;2023-02-01T12:05:25;27.17;;;10.93;;
71947;SDS011;63257;55.082;38.772;2023-02-01T12:10:46;30.33;;;11.07;;
71947;SDS011;63257;55.082;38.772;2023-02-01T12:13:37;28.75;;;11.00;;
71947;SDS011;63257;55.082;38.772;2023-02-01T12:16:26;26.42;;;11.15;;
71947;SDS011;63257;55.082;38.772;2023-02-01T12:36:14;30.38;;;11.82;;
71947;SDS011;63257;55.082;38.772;2023-02-01T12:41:41;31.65;;;11.75;;
71947;SDS011;63257;55.082;38.772;2023-02-01T12:44:12;33.63;;;12.77;;
71947;SDS011;63257;55.082;38.772;2023-02-01T12:49:58;28.02;;;11.23;;
71947;SDS011;63257;55.082;38.772;2023-02-01T12:57:56;31.37;;;11.03;;
71947;SDS011;63257;55.082;38.772;2023-02-01T13:00:32;33.72;;;12.32;;
71947;SDS011;63257;55.082;38.772;2023-02-01T13:05:58;31.07;;;11.20;;
71947;SDS011;63257;55.082;38.772;2023-02-01T13:08:36;28.75;;;12.00;;
71947;SDS011;63257;55.082;38.772;2023-02-01T13:11:12;30.95;;;11.52;;
71947;SDS011;63257;55.082;38.772;2023-02-01T13:13:56;30.55;;;11.50;;
71947;SDS011;63257;55.082;38.772;2023-02-01T13:16:43;27.10;;;11.07;;
71947;SDS011;63257;55.082;38.772;2023-02-01T13:19:17;29.80;;;11.85;;
71947;SDS011;63257;55.082;38.772;2023-02-01T13:21:51;27.02;;;10.93;;
71947;SDS011;63257;55.082;38.772;2023-02-01T13:36:37;28.85;;;11.18;;
71947;SDS011;63257;55.082;38.772;2023-02-01T13:46:22;31.02;;;11.45;;
71947;SDS011;63257;55.082;38.772;2023-02-01T13:48:50;30.25;;;11.18;;
71947;SDS011;63257;55.082;38.772;2023-02-01T13:51:31;29.33;;;11.35;;
71947;SDS011;63257;55.082;38.772;2023-02-01T13:54:06;28.00;;;11.20;;
71947;SDS011;63257;55.082;38.772;2023-02-01T13:56:48;32.83;;;11.95;;
71947;SDS011;63257;55.082;38.772;2023-02-01T14:05:09;29.27;;;10.95;;
71947;SDS011;63257;55.082;38.772;2023-02-01T14:08:02;52.30;;;27.75;;
71947;SDS011;63257;55.082;38.772;2023-02-01T14:23:42;30.02;;;11.85;;
71947;SDS011;63257;55.082;38.772;2023-02-01T14:26:11;31.63;;;12.25;;
71947;SDS011;63257;55.082;38.772;2023-02-01T14:28:44;27.03;;;9.90;;
71947;SDS011;63257;55.082;38.772;2023-02-01T14:31:17;29.85;;;11.60;;
71947;SDS011;63257;55.082;38.772;2023-02-01T14:34:04;29.05;;;11.85;;
71947;SDS011;63257;55.082;38.772;2023-02-01T14:36:43;40.00;;;15.27;;
71947;SDS011;63257;55.082;38.772;2023-02-01T14:39:19;29.40;;;11.77;;
71947;SDS011;63257;55.082;38.772;2023-02-01T14:41:59;30.80;;;11.75;;
71947;SDS011;63257;55.082;38.772;2023-02-01T14:44:30;28.65;;;10.93;;
71947;SDS011;63257;55.082;38.772;2023-02-01T14:47:03;28.80;;;11.50;;
71947;SDS011;63257;55.082;38.772;2023-02-01T14:52:32;28.42;;;11.35;;
71947;SDS011;63257;55.082;38.772;2023-02-01T14:58:11;29.25;;;11.27;;
71947;SDS011;63257;55.082;38.772;2023-02-01T15:00:51;29.75;;;11.25;;
71947;SDS011;63257;55.082;38.772;2023-02-01T15:06:03;31.25;;;11.65;;
71947;SDS011;63257;55.082;38.772;2023-02-01T15:08:33;33.60;;;11.90;;
71947;SDS011;63257;55.082;38.772;2023-02-01T15:11:06;36.53;;;14.25;;
71947;SDS011;63257;55.082;38.772;2023-02-01T15:13:38;32.75;;;12.25;;
71947;SDS011;63257;55.082;38.772;2023-02-01T15:16:05;31.17;;;12.23;;
71947;SDS011;63257;55.082;38.772;2023-02-01T15:18:34;32.47;;;12.48;;
71947;SDS011;63257;55.082;38.772;2023-02-01T15:21:01;33.35;;;12.75;;
71947;SDS011;63257;55.082;38.772;2023-02-01T15:23:28;33.72;;;12.52;;
71947;SDS011;63257;55.082;38.772;2023-02-01T15:25:54;35.30;;;12.73;;
71947;SDS011;63257;55.082;38.772;2023-02-01T15:28:21;36.90;;;15.07;;
71947;SDS011;63257;55.082;38.772;2023-02-01T15:31:06;35.78;;;14.57;;
71947;SDS011;63257;55.082;38.772;2023-02-01T15:33:33;33.78;;;13.15;;
71947;SDS011;63257;55.082;38.772;2023-02-01T15:49:01;32.30;;;13.60;;
71947;SDS011;63257;55.082;38.772;2023-02-01T15:51:29;30.98;;;12.27;;
71947;SDS011;63257;55.082;38.772;2023-02-01T15:54:01;26.43;;;10.83;;
71947;SDS011;63257;55.082;38.772;2023-02-01T15:56:34;26.58;;;11.00;;
71947;SDS011;63257;55.082;38.772;2023-02-01T15:59:02;26.95;;;9.80;;
71947;SDS011;63257;55.082;38.772;2023-02-01T16:01:41;29.37;;;11.07;;
71947;SDS011;63257;55.082;38.772;2023-02-01T16:04:20;25.95;;;9.65;;
71947;SDS011;63257;55.082;38.772;2023-02-01T16:06:50;23.65;;;10.18;;
71947;SDS011;63257;55.082;38.772;2023-02-01T16:09:19;25.55;;;11.57;;
71947;SDS011;63257;55.082;38.772;2023-02-01T16:14:23;27.20;;;9.77;;
71947;SDS011;63257;55.082;38.772;2023-02-01T16:16:51;25.27;;;9.50;;
71947;SDS011;63257;55.082;38.772;2023-02-01T16:19:19;29.57;;;10.90;;
71947;SDS011;63257;55.082;38.772;2023-02-01T16:21:46;28.30;;;10.48;;
71947;SDS011;63257;55.082;38.772;2023-02-01T16:24:12;26.30;;;9.55;;
71947;SDS011;63257;55.082;38.772;2023-02-01T16:26:38;28.27;;;10.57;;
71947;SDS011;63257;55.082;38.772;2023-02-01T16:29:04;25.08;;;9.68;;
71947;SDS011;63257;55.082;38.772;2023-02-01T16:31:34;28.27;;;10.40;;
71947;SDS011;63257;55.082;38.772;2023-02-01T16:34:02;29.05;;;10.57;;
71947;SDS011;63257;55.082;38.772;2023-02-01T16:36:29;27.73;;;10.80;;
71947;SDS011;63257;55.082;38.772;2023-02-01T16:38:55;27.20;;;10.43;;
71947;SDS011;63257;55.082;38.772;2023-02-01T16:41:22;28.63;;;10.83;;
71947;SDS011;63257;55.082;38.772;2023-02-01T16:43:49;27.85;;;10.38;;
71947;SDS011;63257;55.082;38.772;2023-02-01T16:46:17;32.50;;;11.07;;
71947;SDS011;63257;55.082;38.772;2023-02-01T16:48:55;26.50;;;11.17;;
71947;SDS011;63257;55.082;38.772;2023-02-01T16:51:24;27.27;;;10.82;;
71947;SDS011;63257;55.082;38.772;2023-02-01T16:53:51;29.95;;;11.43;;
71947;SDS011;63257;55.082;38.772;2023-02-01T16:56:21;28.08;;;11.38;;
71947;SDS011;63257;55.082;38.772;2023-02-01T16:58:54;31.15;;;11.05;;
71947;SDS011;63257;55.082;38.772;2023-02-01T17:01:21;28.10;;;11.38;;
71947;SDS011;63257;55.082;38.772;2023-02-01T17:03:47;32.35;;;11.85;;
71947;SDS011;63257;55.082;38.772;2023-02-01T17:06:16;31.65;;;11.75;;
71947;SDS011;63257;55.082;38.772;2023-02-01T17:08:46;28.20;;;11.25;;
71947;SDS011;63257;55.082;38.772;2023-02-01T17:11:16;35.00;;;14.70;;
71947;SDS011;63257;55.082;38.772;2023-02-01T17:13:42;33.70;;;12.70;;
71947;SDS011;63257;55.082;38.772;2023-02-01T17:18:43;30.83;;;11.65;;